Norfolk, Virginia
Current Conditions -  °F | °C
As of 11:51 PM on Thursday 30 Oct 2014 (Local Time) from KORF Reporting Station
Clear Clear  
Wind Chill: 13°   Ceiling: Unl
Heat Index: 13°   Visibility: 10mi
Dew Point:   Wind: 8mph
Humidity: 59%   Direction: 50°NE
Pressure: 30.01"   Gusts: NA
Location:  36.85°N, 76.28°W
Report Text: KORF 310351Z AUTO 05007KT 10SM CLR 13/05 A3001 RMK AO2 SLP160 T01280050 TSNO $
Loading
Personal Weather Stations






























Interactive Weather Map New forecast layout! Learn more

10-Day Weather Forecast

Advertisements
Track Severe Weather on mobile